Time;durP1;ratioP1;P1;durP2;ratioP2;P2;SDS_P1;SDS_P2;PMS_P1;PMS_P2;Temp;Humidity;BMP_temperature;BMP_pressure;BME280_temperature;BME280_humidity;BME280_pressure;Samples;Min_cycle;Max_cycle;Signal;HPM_P1;HPM_P2
2022/03/12 00:02:51;;;;;;;9.20;4.17;;;;;1.00;96610.00;;;;8427058;28;20257;-72
2022/03/12 00:06:54;;;;;;;7.43;4.10;;;;;0.90;96621.00;;;;8426703;28;20555;-71
2022/03/12 00:10:59;;;;;;;6.40;3.83;;;;;0.80;96620.00;;;;8427745;28;20347;-70
2022/03/12 00:15:37;;;;;;;6.67;3.30;;;;;0.60;96625.00;;;;8418563;28;20287;-71
2022/03/12 00:19:41;;;;;;;6.60;3.47;;;;;0.50;96626.00;;;;8436123;28;20223;-71
2022/03/12 00:23:49;;;;;;;8.60;3.63;;;;;0.40;96635.00;;;;8427249;28;20525;-70
2022/03/12 00:28:20;;;;;;;8.00;4.13;;;;;0.10;96635.00;;;;8427057;28;20227;-70
2022/03/12 00:32:24;;;;;;;6.43;3.63;;;;;0.00;96631.00;;;;8427040;28;20219;-70
2022/03/12 00:36:58;;;;;;;9.17;4.27;;;;;-0.10;96630.00;;;;8427529;28;20280;-69
2022/03/12 00:41:02;;;;;;;10.13;4.47;;;;;-0.10;96629.00;;;;8428463;28;20219;-69
2022/03/12 00:45:06;;;;;;;6.73;4.07;;;;;-0.10;96620.00;;;;8432802;28;20215;-69
2022/03/12 00:49:10;;;;;;;9.00;4.30;;;;;-0.10;96630.00;;;;8432464;28;20223;-69
2022/03/12 00:53:13;;;;;;;6.90;3.90;;;;;-0.10;96627.00;;;;8432295;28;20222;-68
2022/03/12 00:57:50;;;;;;;10.37;4.43;;;;;-0.10;96631.00;;;;8432241;28;20679;-69
2022/03/12 01:01:53;;;;;;;10.67;4.77;;;;;-0.20;96617.00;;;;8432764;28;20248;-68
2022/03/12 01:06:02;;;;;;;5.57;3.70;;;;;-0.20;96626.00;;;;8431955;27;20218;-68
2022/03/12 01:10:05;;;;;;;13.67;4.03;;;;;-0.20;96637.00;;;;8431032;28;20628;-68
2022/03/12 01:14:09;;;;;;;6.63;3.90;;;;;-0.20;96647.00;;;;8432222;28;20215;-67
2022/03/12 01:18:43;;;;;;;5.60;3.97;;;;;-0.50;96643.00;;;;8431351;28;20219;-67
2022/03/12 01:22:47;;;;;;;9.30;4.37;;;;;-0.70;96634.00;;;;8431792;28;20218;-67
2022/03/12 01:26:52;;;;;;;6.67;4.03;;;;;-0.70;96640.00;;;;8431351;28;20613;-67
2022/03/12 01:30:55;;;;;;;7.57;4.00;;;;;-0.70;96642.00;;;;8431271;28;20223;-68
2022/03/12 01:35:01;;;;;;;10.90;5.30;;;;;-0.70;96647.00;;;;8431373;28;20245;-68
2022/03/12 01:39:39;;;;;;;10.87;4.60;;;;;-0.70;96643.00;;;;8431113;28;20257;-68
2022/03/12 01:43:43;;;;;;;9.53;4.73;;;;;-0.80;96642.00;;;;8430976;28;20222;-68
2022/03/12 01:47:46;;;;;;;8.17;4.37;;;;;-0.90;96640.00;;;;8430605;28;20227;-68
2022/03/12 01:52:25;;;;;;;6.20;3.90;;;;;-1.00;96641.00;;;;8430998;28;20557;-67
2022/03/12 01:56:30;;;;;;;6.10;3.63;;;;;-0.90;96631.00;;;;8430193;28;20227;-68
2022/03/12 02:00:43;;;;;;;12.23;3.90;;;;;-0.80;96642.00;;;;8430446;28;20227;-68
2022/03/12 02:05:09;;;;;;;9.17;4.13;;;;;-0.80;96638.00;;;;8430110;28;20227;-68
2022/03/12 02:09:14;;;;;;;7.73;3.80;;;;;-0.80;96631.00;;;;8429701;28;20370;-68
2022/03/12 02:13:57;;;;;;;9.43;4.40;;;;;-0.90;96638.00;;;;8421917;28;22696;-68
2022/03/12 02:18:00;;;;;;;7.43;3.50;;;;;-0.90;96632.00;;;;8437913;28;20273;-68
2022/03/12 02:22:06;;;;;;;9.50;4.37;;;;;-0.90;96620.00;;;;8430254;28;20283;-68
2022/03/12 02:26:45;;;;;;;8.33;4.50;;;;;-0.90;96631.00;;;;8429491;28;20219;-68
2022/03/12 02:30:51;;;;;;;8.30;4.10;;;;;-0.80;96625.00;;;;8429549;28;20211;-67
2022/03/12 02:34:56;;;;;;;7.93;4.30;;;;;-0.80;96620.00;;;;8429104;28;20226;-67
2022/03/12 02:39:30;;;;;;;9.80;4.90;;;;;-0.80;96623.00;;;;8428876;28;20737;-67
2022/03/12 02:43:35;;;;;;;7.37;4.33;;;;;-0.80;96625.00;;;;8428637;28;20227;-68
2022/03/12 02:47:42;;;;;;;8.73;4.20;;;;;-0.80;96622.00;;;;8428549;28;20230;-69
2022/03/12 02:51:45;;;;;;;7.43;3.97;;;;;-0.80;96621.00;;;;8427425;28;20223;-67
2022/03/12 02:55:48;;;;;;;12.90;4.47;;;;;-0.80;96627.00;;;;8428640;28;20280;-66
2022/03/12 02:59:53;;;;;;;10.97;4.13;;;;;-0.90;96616.00;;;;8427638;28;20280;-66
2022/03/12 03:03:56;;;;;;;5.90;3.83;;;;;-1.00;96624.00;;;;8445646;22;20575;-67
2022/03/12 03:08:03;;;;;;;6.97;3.57;;;;;-1.00;96614.00;;;;8406728;28;20239;-68
2022/03/12 03:12:09;;;;;;;6.97;3.73;;;;;-1.10;96610.00;;;;8413273;28;20233;-68
2022/03/12 03:16:18;;;;;;;6.00;3.73;;;;;-1.10;96601.00;;;;8412666;28;20748;-68
2022/03/12 03:20:22;;;;;;;6.67;4.30;;;;;-1.10;96606.00;;;;8410451;28;20223;-69
2022/03/12 03:24:26;;;;;;;6.07;3.83;;;;;-1.10;96604.00;;;;8411077;28;20231;-70
2022/03/12 03:28:29;;;;;;;8.57;4.07;;;;;-1.10;96602.00;;;;8405201;28;20223;-70
2022/03/12 03:32:34;;;;;;;6.73;3.57;;;;;-1.00;96612.00;;;;8411882;28;20235;-70
2022/03/12 03:36:37;;;;;;;8.10;4.50;;;;;-1.10;96611.00;;;;8409789;28;20219;-70
2022/03/12 03:40:41;;;;;;;9.23;4.30;;;;;-1.10;96616.00;;;;8407509;28;20231;-68
2022/03/12 03:44:44;;;;;;;10.73;4.00;;;;;-1.10;96612.00;;;;8407906;28;20227;-68
2022/03/12 03:48:51;;;;;;;7.83;4.27;;;;;-1.20;96615.00;;;;8405244;28;20223;-69
2022/03/12 03:52:58;;;;;;;7.80;3.40;;;;;-1.20;96619.00;;;;8408617;28;20347;-70
2022/03/12 03:57:00;;;;;;;9.97;4.00;;;;;-1.20;96613.00;;;;8407567;28;20219;-69
2022/03/12 04:01:11;;;;;;;8.10;4.07;;;;;-1.20;96617.00;;;;8400759;28;20230;-71
2022/03/12 04:05:16;;;;;;;5.03;3.63;;;;;-1.20;96627.00;;;;8365256;28;20231;-69
2022/03/12 04:09:19;;;;;;;7.27;4.20;;;;;-1.20;96633.00;;;;8374504;28;20243;-72
2022/03/12 04:13:23;;;;;;;6.67;4.13;;;;;-1.20;96638.00;;;;8367322;28;20779;-68
2022/03/12 04:17:27;;;;;;;9.17;4.07;;;;;-1.20;96630.00;;;;8376438;28;20961;-69
2022/03/12 04:21:31;;;;;;;7.43;4.40;;;;;-1.20;96633.00;;;;8372645;28;20228;-69
2022/03/12 04:25:35;;;;;;;6.77;3.83;;;;;-1.20;96628.00;;;;8378533;28;20240;-69
2022/03/12 04:29:39;;;;;;;8.27;4.87;;;;;-1.20;96633.00;;;;8380470;28;20766;-69
2022/03/12 04:33:41;;;;;;;5.83;3.90;;;;;-1.30;96643.00;;;;8384028;28;20357;-70
2022/03/12 04:37:46;;;;;;;8.10;4.43;;;;;-1.30;96645.00;;;;8383355;28;20265;-68
2022/03/12 04:41:49;;;;;;;10.03;4.60;;;;;-1.40;96647.00;;;;8380789;28;20228;-67
2022/03/12 04:45:52;;;;;;;12.27;4.40;;;;;-1.40;96647.00;;;;8381279;28;20730;-67
2022/03/12 04:49:55;;;;;;;9.17;4.50;;;;;-1.40;96653.00;;;;8378673;28;20260;-67
2022/03/12 04:54:01;;;;;;;9.67;4.70;;;;;-1.50;96659.00;;;;8381119;28;20224;-69
2022/03/12 04:58:04;;;;;;;8.77;4.27;;;;;-1.50;96655.00;;;;8379305;28;20574;-69
2022/03/12 05:02:11;;;;;;;6.77;3.90;;;;;-1.60;96656.00;;;;8382747;28;20615;-71
2022/03/12 05:06:15;;;;;;;10.97;4.53;;;;;-1.60;96640.00;;;;8373193;28;20293;-72
2022/03/12 05:10:20;;;;;;;6.47;3.60;;;;;-1.60;96652.00;;;;8374509;28;20887;-70
2022/03/12 05:14:23;;;;;;;8.10;4.33;;;;;-1.60;96655.00;;;;8372284;28;20285;-71
2022/03/12 05:18:26;;;;;;;6.57;4.23;;;;;-1.50;96653.00;;;;8382045;28;20224;-73
2022/03/12 05:22:29;;;;;;;7.60;3.90;;;;;-1.50;96657.00;;;;8385437;28;20227;-69
2022/03/12 05:26:34;;;;;;;7.10;4.33;;;;;-1.40;96663.00;;;;8382837;28;20294;-71
2022/03/12 05:30:39;;;;;;;8.30;4.13;;;;;-1.30;96661.00;;;;8375813;28;20296;-70
2022/03/12 05:34:43;;;;;;;10.07;4.37;;;;;-1.30;96671.00;;;;8377138;28;20254;-70
2022/03/12 05:38:46;;;;;;;6.77;3.77;;;;;-1.30;96668.00;;;;8366571;28;20224;-74
2022/03/12 05:42:52;;;;;;;9.37;4.43;;;;;-1.30;96683.00;;;;8376515;28;20327;-70
2022/03/12 05:46:55;;;;;;;6.83;4.00;;;;;-1.20;96683.00;;;;8370886;28;20258;-72
2022/03/12 05:50:59;;;;;;;9.73;4.13;;;;;-1.20;96681.00;;;;8370135;28;20224;-73
2022/03/12 05:55:02;;;;;;;7.37;4.47;;;;;-1.10;96692.00;;;;8374982;28;20231;-72
2022/03/12 05:59:07;;;;;;;4.53;3.70;;;;;-1.00;96697.00;;;;8379080;28;20787;-71
2022/03/12 06:03:10;;;;;;;8.40;3.97;;;;;-1.00;96700.00;;;;8360459;28;20232;-70
2022/03/12 06:07:14;;;;;;;7.57;4.07;;;;;-0.90;96697.00;;;;8379892;28;20728;-70
2022/03/12 06:11:17;;;;;;;9.07;4.07;;;;;-0.80;96706.00;;;;8370299;28;20238;-72
2022/03/12 06:15:23;;;;;;;8.03;4.33;;;;;-0.70;96706.00;;;;8369153;28;20617;-69
2022/03/12 06:19:29;;;;;;;6.53;3.80;;;;;-0.50;96702.00;;;;8366865;28;20239;-74
2022/03/12 06:23:33;;;;;;;10.07;4.33;;;;;-0.40;96709.00;;;;8368715;28;20728;-75
2022/03/12 06:27:37;;;;;;;6.90;3.70;;;;;-0.30;96723.00;;;;8370955;28;20227;-72
2022/03/12 06:31:42;;;;;;;7.37;3.50;;;;;-0.20;96719.00;;;;8371992;28;20228;-76
2022/03/12 06:35:46;;;;;;;5.57;3.50;;;;;-0.10;96732.00;;;;8375147;28;20231;-73
2022/03/12 06:39:49;;;;;;;11.60;4.80;;;;;0.00;96726.00;;;;8377223;28;20261;-73
2022/03/12 06:43:53;;;;;;;6.77;4.33;;;;;0.10;96726.00;;;;8364746;28;20227;-73
2022/03/12 06:47:58;;;;;;;9.80;4.77;;;;;0.30;96732.00;;;;8368248;28;20224;-73
2022/03/12 06:52:01;;;;;;;9.83;4.60;;;;;0.40;96732.00;;;;8372522;28;20702;-68
2022/03/12 06:56:04;;;;;;;8.33;4.67;;;;;0.60;96732.00;;;;8371324;28;20281;-68
2022/03/12 07:00:13;;;;;;;8.60;4.03;;;;;0.70;96745.00;;;;8371712;28;20223;-68
2022/03/12 07:04:18;;;;;;;8.23;4.40;;;;;0.80;96744.00;;;;8373444;28;20403;-68
2022/03/12 07:08:22;;;;;;;8.57;4.47;;;;;0.80;96750.00;;;;8374268;28;20220;-69
2022/03/12 07:12:25;;;;;;;7.90;4.30;;;;;0.90;96744.00;;;;8375869;28;20849;-68
2022/03/12 07:16:28;;;;;;;7.40;4.70;;;;;1.00;96749.00;;;;8369302;28;20224;-69
2022/03/12 07:20:33;;;;;;;11.03;4.90;;;;;1.20;96756.00;;;;8374305;28;20709;-68
2022/03/12 07:24:36;;;;;;;8.47;4.80;;;;;1.40;96757.00;;;;8365317;28;20228;-68
2022/03/12 07:28:39;;;;;;;14.83;4.70;;;;;1.60;96752.00;;;;8374736;28;20274;-67
2022/03/12 07:32:43;;;;;;;9.80;4.17;;;;;1.90;96763.00;;;;8360708;28;20228;-66
2022/03/12 07:36:48;;;;;;;8.47;3.70;;;;;2.10;96761.00;;;;8367096;28;20232;-66
2022/03/12 07:40:51;;;;;;;6.23;3.93;;;;;2.30;96760.00;;;;8355112;28;20234;-67
2022/03/12 07:44:55;;;;;;;6.40;3.70;;;;;2.50;96756.00;;;;8365158;28;20227;-67
2022/03/12 07:48:59;;;;;;;6.77;3.90;;;;;2.60;96755.00;;;;8370810;28;20706;-66
2022/03/12 07:53:03;;;;;;;7.13;3.67;;;;;2.80;96767.00;;;;8373109;28;20247;-67
2022/03/12 07:57:06;;;;;;;8.60;4.53;;;;;2.90;96766.00;;;;8377562;28;22106;-67
2022/03/12 08:01:09;;;;;;;6.43;3.87;;;;;3.00;96763.00;;;;8378834;28;20680;-68
2022/03/12 08:05:16;;;;;;;9.97;4.07;;;;;3.10;96770.00;;;;8369557;28;20255;-69
2022/03/12 08:09:20;;;;;;;8.17;4.30;;;;;3.20;96767.00;;;;8376401;28;20237;-69
2022/03/12 08:13:23;;;;;;;4.73;3.47;;;;;3.30;96768.00;;;;8373294;28;21971;-69
2022/03/12 08:17:26;;;;;;;5.83;3.83;;;;;3.50;96779.00;;;;8369847;28;20239;-70
2022/03/12 08:21:29;;;;;;;6.07;3.50;;;;;3.80;96770.00;;;;8375924;28;20300;-66
2022/03/12 08:25:33;;;;;;;9.30;4.43;;;;;3.90;96779.00;;;;8379553;28;20942;-69
2022/03/12 08:29:36;;;;;;;5.50;3.77;;;;;4.20;96774.00;;;;8375643;28;20642;-69
2022/03/12 08:33:40;;;;;;;11.60;4.17;;;;;4.40;96777.00;;;;8377812;28;20233;-70
2022/03/12 08:37:43;;;;;;;7.87;4.10;;;;;4.60;96774.00;;;;8376547;28;20280;-70
2022/03/12 08:41:48;;;;;;;6.50;3.80;;;;;4.90;96775.00;;;;8379571;28;20241;-70
2022/03/12 08:45:51;;;;;;;7.43;4.20;;;;;5.10;96770.00;;;;8374147;28;20764;-68
2022/03/12 08:49:54;;;;;;;7.73;4.60;;;;;5.20;96778.00;;;;8376643;28;20242;-72
2022/03/12 08:53:57;;;;;;;6.17;3.67;;;;;5.30;96768.00;;;;8379457;28;20284;-69
2022/03/12 08:58:02;;;;;;;4.90;3.43;;;;;5.50;96770.00;;;;8372028;28;20659;-69
2022/03/12 09:02:05;;;;;;;7.33;4.23;;;;;5.50;96770.00;;;;8375884;28;20230;-71
2022/03/12 09:06:09;;;;;;;6.77;3.80;;;;;5.70;96773.00;;;;8371373;28;20237;-70
2022/03/12 09:10:14;;;;;;;5.80;3.63;;;;;5.90;96781.00;;;;8376570;28;20245;-70
2022/03/12 09:14:19;;;;;;;8.50;3.50;;;;;6.10;96781.00;;;;8364688;28;20785;-68
2022/03/12 09:18:23;;;;;;;11.63;5.20;;;;;6.20;96786.00;;;;8369901;28;20756;-70
2022/03/12 09:22:26;;;;;;;9.53;4.87;;;;;6.40;96789.00;;;;8374540;28;20607;-70
2022/03/12 09:26:29;;;;;;;11.67;5.57;;;;;6.80;96781.00;;;;8379236;28;20221;-74
2022/03/12 09:30:33;;;;;;;7.67;3.80;;;;;7.00;96776.00;;;;8374848;28;20227;-71
2022/03/12 09:34:37;;;;;;;6.87;3.83;;;;;7.20;96782.00;;;;8407125;28;20223;-73
2022/03/12 09:38:40;;;;;;;6.03;3.57;;;;;7.50;96768.00;;;;8411538;28;20308;-73
2022/03/12 09:42:44;;;;;;;8.90;4.03;;;;;7.80;96766.00;;;;8408367;28;20280;-74
2022/03/12 09:46:48;;;;;;;7.47;3.77;;;;;7.90;96773.00;;;;8397187;28;20223;-76
2022/03/12 09:50:51;;;;;;;5.47;3.43;;;;;8.00;96773.00;;;;8410751;28;20591;-77
2022/03/12 09:54:54;;;;;;;6.87;3.97;;;;;8.40;96777.00;;;;8413548;28;20764;-76
2022/03/12 09:58:57;;;;;;;6.57;4.10;;;;;8.70;96771.00;;;;8405633;28;20281;-78
2022/03/12 10:03:04;;;;;;;6.77;3.67;;;;;9.10;96766.00;;;;8407120;28;20649;-79
2022/03/12 10:07:09;;;;;;;7.73;3.67;;;;;9.80;96774.00;;;;8408614;28;20604;-78
2022/03/12 10:11:12;;;;;;;9.23;3.97;;;;;10.30;96777.00;;;;8395963;28;20293;-81
2022/03/12 10:15:16;;;;;;;5.53;4.07;;;;;10.60;96783.00;;;;8403582;28;20828;-80
2022/03/12 10:19:20;;;;;;;5.20;4.03;;;;;10.90;96777.00;;;;8397179;28;20223;-81
2022/03/12 10:23:24;;;;;;;5.67;4.40;;;;;11.20;96777.00;;;;8398289;28;20235;-73
2022/03/12 10:27:27;;;;;;;8.17;5.03;;;;;11.50;96772.00;;;;8402890;28;20288;-73
2022/03/12 10:31:30;;;;;;;13.77;8.80;;;;;12.00;96770.00;;;;8402927;28;20231;-75
2022/03/12 10:35:37;;;;;;;26.50;5.70;;;;;12.30;96770.00;;;;8402375;28;20215;-75
2022/03/12 10:39:40;;;;;;;6.03;4.30;;;;;11.90;96761.00;;;;8394494;28;20226;-76
2022/03/12 10:43:46;;;;;;;9.17;4.77;;;;;11.70;96757.00;;;;8401220;28;20228;-76
2022/03/12 10:47:51;;;;;;;7.53;4.03;;;;;11.40;96753.00;;;;8409730;28;20215;-77
2022/03/12 10:51:58;;;;;;;6.13;4.03;;;;;11.10;96752.00;;;;8401258;28;20227;-74
2022/03/12 10:56:06;;;;;;;6.67;4.30;;;;;11.30;96746.00;;;;8407297;28;20228;-75
2022/03/12 11:00:11;;;;;;;7.50;4.43;;;;;11.00;96735.00;;;;8395700;28;20265;-75
2022/03/12 11:04:19;;;;;;;6.40;3.90;;;;;10.70;96742.00;;;;8388788;28;20325;-76
2022/03/12 11:08:26;;;;;;;8.00;5.07;;;;;10.50;96740.00;;;;8407126;28;20281;-75
2022/03/12 11:12:31;;;;;;;8.27;4.47;;;;;10.60;96724.00;;;;8401096;28;20316;-72
2022/03/12 11:16:35;;;;;;;10.13;4.23;;;;;10.90;96742.00;;;;8399286;28;20223;-75
2022/03/12 11:20:38;;;;;;;4.67;3.70;;;;;11.00;96729.00;;;;8394460;28;20219;-76
2022/03/12 11:24:48;;;;;;;5.90;4.10;;;;;10.60;96731.00;;;;8398342;28;20223;-78
2022/03/12 11:28:56;;;;;;;12.70;4.68;;;;;10.40;96728.00;;;;8400547;28;20650;-77
2022/03/12 11:33:06;;;;;;;11.97;4.80;;;;;10.60;96726.00;;;;8402471;28;20234;-74
2022/03/12 11:37:13;;;;;;;6.63;4.10;;;;;10.60;96720.00;;;;8412021;28;20243;-74
2022/03/12 11:41:27;;;;;;;6.33;4.20;;;;;10.50;96714.00;;;;8412895;28;20258;-76
2022/03/12 11:45:30;;;;;;;8.13;4.63;;;;;10.80;96703.00;;;;8412310;28;20223;-76
2022/03/12 11:49:34;;;;;;;6.27;4.17;;;;;10.80;96703.00;;;;8412388;28;20233;-76
2022/03/12 11:53:39;;;;;;;9.23;4.50;;;;;10.70;96708.00;;;;8409513;28;20227;-76
2022/03/12 11:57:51;;;;;;;6.68;4.35;;;;;10.60;96694.00;;;;8412011;28;20219;-76
2022/03/12 12:02:03;;;;;;;8.57;4.60;;;;;10.70;96699.00;;;;8411372;28;20230;-75
2022/03/12 12:06:07;;;;;;;8.20;4.57;;;;;10.80;96692.00;;;;8407629;28;20787;-74
2022/03/12 12:10:11;;;;;;;6.90;4.07;;;;;10.90;96693.00;;;;8410681;28;20820;-78
2022/03/12 12:14:19;;;;;;;8.20;4.33;;;;;11.00;96685.00;;;;8410553;28;20227;-77
2022/03/12 12:18:23;;;;;;;6.63;4.30;;;;;11.10;96688.00;;;;8410114;28;20231;-78
2022/03/12 12:22:27;;;;;;;8.35;4.60;;;;;11.10;96676.00;;;;8395203;28;20698;-77
2022/03/12 12:26:30;;;;;;;10.30;4.45;;;;;11.00;96674.00;;;;8401007;28;20227;-78
2022/03/12 12:30:39;;;;;;;7.57;4.35;;;;;10.80;96668.00;;;;8398901;28;20224;-76
2022/03/12 12:34:59;;;;;;;8.03;4.87;;;;;10.80;96673.00;;;;8402020;28;20227;-78
2022/03/12 12:39:07;;;;;;;10.02;4.78;;;;;11.00;96672.00;;;;8406140;28;20284;-78
2022/03/12 12:43:13;;;;;;;8.02;4.72;;;;;11.20;96666.00;;;;8401562;28;20303;-76
2022/03/12 12:47:18;;;;;;;12.20;4.50;;;;;11.30;96667.00;;;;8405193;28;20296;-78
2022/03/12 12:51:26;;;;;;;11.38;4.80;;;;;11.40;96663.00;;;;8408823;28;20758;-82
2022/03/12 12:55:33;;;;;;;7.78;4.60;;;;;11.60;96659.00;;;;8404886;28;20223;-77
2022/03/12 12:59:41;;;;;;;7.28;4.47;;;;;11.70;96651.00;;;;8404627;28;20234;-76
2022/03/12 13:03:48;;;;;;;7.88;4.15;;;;;11.80;96648.00;;;;8396934;28;20729;-75
2022/03/12 13:08:00;;;;;;;7.32;4.55;;;;;11.70;96649.00;;;;8404776;28;20227;-75
2022/03/12 13:12:05;;;;;;;9.38;4.85;;;;;11.70;96648.00;;;;8407098;28;20222;-76
2022/03/12 13:16:16;;;;;;;8.80;5.25;;;;;11.80;96648.00;;;;8412534;28;20757;-76
2022/03/12 13:20:36;;;;;;;8.85;5.13;;;;;11.80;96633.00;;;;8399368;28;20250;-77
2022/03/12 13:24:46;;;;;;;7.82;5.25;;;;;11.90;96619.00;;;;8410003;28;20270;-78
2022/03/12 13:28:51;;;;;;;11.48;5.05;;;;;12.00;96612.00;;;;8408804;28;20231;-79
2022/03/12 13:32:56;;;;;;;9.55;5.57;;;;;12.10;96606.00;;;;8398077;28;20236;-78
2022/03/12 13:37:01;;;;;;;11.10;5.70;;;;;12.10;96604.00;;;;8391210;28;20259;-78
2022/03/12 13:41:14;;;;;;;9.23;5.28;;;;;12.20;96603.00;;;;8383834;28;20308;-73
2022/03/12 13:45:19;;;;;;;9.73;5.43;;;;;12.30;96598.00;;;;8406182;28;20774;-73
2022/03/12 13:49:23;;;;;;;12.98;5.65;;;;;12.30;96588.00;;;;8398012;28;20302;-73
2022/03/12 13:53:30;;;;;;;9.00;5.47;;;;;12.30;96596.00;;;;8408899;28;20240;-73
2022/03/12 13:57:40;;;;;;;8.23;4.75;;;;;12.30;96597.00;;;;8412246;28;20322;-75
2022/03/12 14:01:47;;;;;;;8.98;5.43;;;;;12.30;96594.00;;;;8413930;28;20264;-72
2022/03/12 14:05:51;;;;;;;10.32;5.15;;;;;12.30;96593.00;;;;8397799;28;20274;-72
2022/03/12 14:10:05;;;;;;;11.98;4.97;;;;;12.30;96586.00;;;;8405147;28;20277;-73
2022/03/12 14:14:10;;;;;;;8.63;5.38;;;;;12.50;96584.00;;;;8394759;28;20254;-74
2022/03/12 14:18:24;;;;;;;9.45;4.40;;;;;12.60;96583.00;;;;8409625;28;20276;-74
2022/03/12 14:22:28;;;;;;;10.90;4.80;;;;;12.80;96571.00;;;;8406120;28;20228;-74
2022/03/12 14:26:43;;;;;;;13.48;6.07;;;;;12.90;96575.00;;;;8408457;28;20604;-74
2022/03/12 14:30:46;;;;;;;8.45;5.57;;;;;13.10;96576.00;;;;8398304;28;20221;-74
2022/03/12 14:34:49;;;;;;;10.05;5.70;;;;;13.20;96573.00;;;;8394906;28;20233;-74
2022/03/12 14:38:53;;;;;;;13.13;5.65;;;;;13.30;96568.00;;;;8404858;28;20607;-74
2022/03/12 14:43:02;;;;;;;11.73;5.30;;;;;13.40;96565.00;;;;8393199;28;20744;-74
2022/03/12 14:47:07;;;;;;;8.18;4.90;;;;;13.40;96554.00;;;;8402716;28;20221;-73
2022/03/12 14:51:11;;;;;;;10.38;5.50;;;;;13.40;96556.00;;;;8401352;28;20217;-73
2022/03/12 14:55:16;;;;;;;8.93;5.40;;;;;13.50;96556.00;;;;8407052;28;20278;-72
2022/03/12 14:59:23;;;;;;;10.98;4.63;;;;;13.60;96546.00;;;;8405802;28;20234;-72
2022/03/12 15:03:26;;;;;;;8.95;5.03;;;;;13.50;96551.00;;;;8401977;28;20278;-72
2022/03/12 15:07:34;;;;;;;10.82;5.18;;;;;13.50;96542.00;;;;8406675;28;20272;-73
2022/03/12 15:11:38;;;;;;;7.80;4.78;;;;;13.50;96547.00;;;;8402879;28;20217;-71
2022/03/12 15:15:43;;;;;;;6.93;4.78;;;;;13.60;96544.00;;;;8401290;28;20234;-72
2022/03/12 15:19:47;;;;;;;11.90;5.10;;;;;13.70;96553.00;;;;8389544;28;20232;-72
2022/03/12 15:23:52;;;;;;;9.27;4.63;;;;;13.80;96545.00;;;;8402715;28;20222;-71
2022/03/12 15:27:57;;;;;;;11.27;5.78;;;;;13.80;96547.00;;;;8384400;28;20326;-72
2022/03/12 15:32:16;;;;;;;9.75;5.57;;;;;13.80;96543.00;;;;8393866;28;20769;-72
2022/03/12 15:36:22;;;;;;;10.55;4.80;;;;;13.70;96536.00;;;;8388158;28;20288;-72
2022/03/12 15:40:25;;;;;;;10.25;4.88;;;;;13.70;96543.00;;;;8387796;28;20248;-72
2022/03/12 15:44:28;;;;;;;20.35;6.07;;;;;13.60;96535.00;;;;8396105;28;20224;-73
2022/03/12 15:48:34;;;;;;;10.40;4.85;;;;;13.60;96537.00;;;;8387635;28;20239;-72
2022/03/12 15:52:38;;;;;;;7.60;4.55;;;;;13.50;96536.00;;;;8388874;28;20226;-73
2022/03/12 15:56:41;;;;;;;7.13;4.55;;;;;13.30;96533.00;;;;8393231;28;20633;-73
2022/03/12 16:00:44;;;;;;;5.60;4.38;;;;;13.20;96533.00;;;;8388449;28;20310;-73
2022/03/12 16:04:50;;;;;;;7.53;4.05;;;;;13.00;96529.00;;;;8395947;28;20227;-72
2022/03/12 16:08:53;;;;;;;5.75;4.22;;;;;12.90;96536.00;;;;8385667;28;20278;-73
2022/03/12 16:13:01;;;;;;;7.47;4.55;;;;;12.60;96530.00;;;;8398585;28;20226;-72
2022/03/12 16:17:06;;;;;;;8.63;4.05;;;;;12.40;96526.00;;;;8384888;28;20561;-73
2022/03/12 16:21:11;;;;;;;7.43;4.20;;;;;12.20;96519.00;;;;8395176;28;20272;-71
2022/03/12 16:25:15;;;;;;;6.35;4.13;;;;;12.00;96526.00;;;;8407521;28;20280;-72
2022/03/12 16:29:18;;;;;;;9.45;5.07;;;;;11.70;96511.00;;;;8396880;28;20230;-73
2022/03/12 16:33:22;;;;;;;11.32;3.83;;;;;11.50;96510.00;;;;8416652;28;20919;-72
2022/03/12 16:37:28;;;;;;;5.95;3.45;;;;;11.30;96504.00;;;;8410230;28;20356;-73
2022/03/12 16:41:32;;;;;;;7.13;3.63;;;;;11.10;96501.00;;;;8412421;28;20227;-73
2022/03/12 16:45:36;;;;;;;7.32;3.80;;;;;10.90;96499.00;;;;8408341;28;20561;-74
2022/03/12 16:49:39;;;;;;;11.05;5.82;;;;;10.60;96508.00;;;;8417805;28;20219;-75
2022/03/12 16:53:48;;;;;;;11.25;5.63;;;;;10.30;96506.00;;;;8412800;28;20621;-72
2022/03/12 16:57:53;;;;;;;13.67;7.33;;;;;9.90;96501.00;;;;8374374;28;20223;-74
2022/03/12 17:01:56;;;;;;;9.30;5.17;;;;;9.60;96507.00;;;;8400603;28;20250;-76
2022/03/12 17:05:59;;;;;;;7.50;4.93;;;;;9.50;96507.00;;;;8401473;28;20252;-72
2022/03/12 17:10:05;;;;;;;8.77;6.20;;;;;9.30;96518.00;;;;8395302;28;20637;-75
2022/03/12 17:14:13;;;;;;;11.30;7.00;;;;;9.00;96510.00;;;;8396445;28;20231;-72
2022/03/12 17:18:16;;;;;;;11.67;7.40;;;;;8.70;96510.00;;;;8400685;28;20215;-72
2022/03/12 17:22:23;;;;;;;9.37;5.53;;;;;8.50;96505.00;;;;8397326;28;20714;-74
2022/03/12 17:26:28;;;;;;;12.57;7.83;;;;;8.40;96506.00;;;;8401622;28;20243;-77
2022/03/12 17:30:33;;;;;;;12.07;7.00;;;;;8.10;96509.00;;;;8398651;28;20614;-74
2022/03/12 17:34:36;;;;;;;14.13;7.37;;;;;7.90;96500.00;;;;8396184;28;20272;-72
2022/03/12 17:38:39;;;;;;;28.63;10.57;;;;;7.80;96497.00;;;;8397831;28;20590;-73
2022/03/12 17:42:44;;;;;;;15.90;8.20;;;;;7.70;96496.00;;;;8403074;28;20234;-75
2022/03/12 17:46:49;;;;;;;14.17;6.80;;;;;7.50;96501.00;;;;8401678;28;20226;-76
2022/03/12 17:50:52;;;;;;;12.43;6.57;;;;;7.30;96502.00;;;;8399131;28;20230;-74
2022/03/12 17:54:56;;;;;;;10.77;6.67;;;;;7.20;96490.00;;;;8408300;28;20230;-75
2022/03/12 17:59:00;;;;;;;11.00;6.40;;;;;7.10;96494.00;;;;8398858;28;20223;-75
2022/03/12 18:03:04;;;;;;;16.00;8.27;;;;;7.00;96494.00;;;;8397708;28;20235;-74
2022/03/12 18:07:07;;;;;;;14.37;7.27;;;;;6.80;96502.00;;;;8399864;28;20237;-75
2022/03/12 18:11:10;;;;;;;12.33;7.40;;;;;6.70;96504.00;;;;8402747;28;20230;-73
2022/03/12 18:15:15;;;;;;;19.87;7.30;;;;;6.60;96499.00;;;;8398072;28;20289;-72
2022/03/12 18:19:18;;;;;;;12.73;6.73;;;;;6.50;96496.00;;;;8399575;28;20227;-73
2022/03/12 18:23:22;;;;;;;15.27;7.43;;;;;6.30;96497.00;;;;8393016;28;20223;-71
2022/03/12 18:27:25;;;;;;;13.40;7.83;;;;;6.20;96499.00;;;;8399674;28;20779;-74
2022/03/12 18:31:30;;;;;;;12.20;7.57;;;;;6.00;96501.00;;;;8391056;28;20253;-73
2022/03/12 18:35:34;;;;;;;16.83;7.53;;;;;5.90;96497.00;;;;8402226;28;20340;-73
2022/03/12 18:39:37;;;;;;;16.00;8.83;;;;;5.80;96501.00;;;;8396134;28;20231;-73
2022/03/12 18:43:42;;;;;;;15.93;7.80;;;;;5.80;96495.00;;;;8401226;28;20234;-73
2022/03/12 18:47:46;;;;;;;14.00;7.77;;;;;5.70;96476.00;;;;8403789;28;20229;-74
2022/03/12 18:51:50;;;;;;;15.50;7.67;;;;;5.70;96485.00;;;;8409357;28;20238;-72
2022/03/12 18:55:53;;;;;;;15.17;7.27;;;;;5.60;96484.00;;;;8402733;28;20600;-72
2022/03/12 18:59:56;;;;;;;10.37;6.83;;;;;5.60;96480.00;;;;8403260;28;20225;-72
2022/03/12 19:04:00;;;;;;;20.63;8.90;;;;;5.50;96488.00;;;;8406162;28;20750;-71
2022/03/12 19:08:04;;;;;;;17.83;8.47;;;;;5.40;96490.00;;;;8400193;28;20226;-75
2022/03/12 19:12:10;;;;;;;12.57;7.30;;;;;5.30;96491.00;;;;8396469;28;20276;-71
2022/03/12 19:16:14;;;;;;;12.30;6.77;;;;;5.20;96487.00;;;;8401814;28;20229;-71
2022/03/12 19:20:18;;;;;;;14.83;7.17;;;;;5.20;96488.00;;;;8400698;28;20227;-71
2022/03/12 19:24:21;;;;;;;18.50;7.20;;;;;5.20;96483.00;;;;8391213;28;20845;-71
2022/03/12 19:28:24;;;;;;;16.00;7.57;;;;;5.20;96489.00;;;;8400460;28;20230;-73
2022/03/12 19:32:27;;;;;;;12.27;5.97;;;;;5.20;96484.00;;;;8392676;28;20758;-75
2022/03/12 19:36:38;;;;;;;13.43;6.27;;;;;5.30;96486.00;;;;8395489;28;20265;-71
2022/03/12 19:40:44;;;;;;;12.13;7.00;;;;;5.40;96486.00;;;;8401304;28;20362;-70
2022/03/12 19:44:47;;;;;;;11.23;6.20;;;;;5.40;96484.00;;;;8399132;28;20250;-71
2022/03/12 19:48:50;;;;;;;14.63;6.13;;;;;5.30;96495.00;;;;8411023;28;20218;-71
2022/03/12 19:52:56;;;;;;;14.90;7.57;;;;;5.40;96491.00;;;;8404164;28;20258;-72
2022/03/12 19:56:59;;;;;;;12.93;6.67;;;;;5.30;96492.00;;;;8396273;28;20249;-71
2022/03/12 20:01:03;;;;;;;14.20;6.70;;;;;5.20;96491.00;;;;8401157;28;20225;-71
2022/03/12 20:05:07;;;;;;;13.23;6.40;;;;;5.20;96495.00;;;;8392017;28;20307;-72
2022/03/12 20:09:12;;;;;;;14.10;7.03;;;;;5.30;96496.00;;;;8398411;28;20283;-72
2022/03/12 20:13:18;;;;;;;13.27;7.27;;;;;5.30;96491.00;;;;8403635;28;20232;-72
2022/03/12 20:17:21;;;;;;;11.63;6.63;;;;;5.20;96489.00;;;;8401016;28;20223;-72
2022/03/12 20:21:26;;;;;;;12.87;6.57;;;;;5.30;96489.00;;;;8398723;28;20291;-72
2022/03/12 20:25:31;;;;;;;16.53;7.20;;;;;5.30;96489.00;;;;8395490;28;20235;-70
2022/03/12 20:29:35;;;;;;;16.43;7.33;;;;;5.10;96480.00;;;;8396687;28;20230;-72
2022/03/12 20:33:38;;;;;;;14.53;6.53;;;;;5.00;96488.00;;;;8399294;28;21871;-72